Time;durP1;ratioP1;P1;durP2;ratioP2;P2;SDS_P1;SDS_P2;PMS_P1;PMS_P2;Temp;Humidity;BMP_temperature;BMP_pressure;BME280_temperature;BME280_humidity;BME280_pressure;Samples;Min_cycle;Max_cycle;Signal;HPM_P1;HPM_P2
2023/12/21 00:01:35;;;;;;;2.67;0.60;;;;;;;;;;5089835;28;20039;-66
2023/12/21 00:04:02;;;;;;;0.30;0.30;;;;;;;;;;5071935;28;20119;-67
2023/12/21 00:06:27;;;;;;;1.05;0.40;;;;;;;;;;5090266;28;20054;-67
2023/12/21 00:08:52;;;;;;;2.10;0.43;;;;;;;;;;5089539;28;20525;-66
2023/12/21 00:11:18;;;;;;;1.08;0.45;;;;;;;;;;5090557;28;20028;-66
2023/12/21 00:13:44;;;;;;;1.25;0.40;;;;;;;;;;5089977;28;20044;-67
2023/12/21 00:16:09;;;;;;;2.15;0.60;;;;;;;;;;5089728;28;20040;-66
2023/12/21 00:18:35;;;;;;;1.13;0.43;;;;;;;;;;5090006;28;20070;-66
2023/12/21 00:21:00;;;;;;;0.65;0.47;;;;;;;;;;5090294;28;20530;-67
2023/12/21 00:23:25;;;;;;;1.75;0.45;;;;;;;;;;5089862;28;20068;-66
2023/12/21 00:25:51;;;;;;;0.85;0.50;;;;;;;;;;5088061;28;20036;-66
2023/12/21 00:28:16;;;;;;;0.73;0.43;;;;;;;;;;5089610;28;20075;-67
2023/12/21 00:30:41;;;;;;;2.85;0.65;;;;;;;;;;5089492;28;20039;-66
2023/12/21 00:33:07;;;;;;;1.70;0.43;;;;;;;;;;5089704;28;20490;-66
2023/12/21 00:35:32;;;;;;;1.45;0.60;;;;;;;;;;5072002;28;20036;-66
2023/12/21 00:37:58;;;;;;;2.80;0.50;;;;;;;;;;5089676;28;20574;-67
2023/12/21 00:40:23;;;;;;;1.38;0.50;;;;;;;;;;5075130;28;20547;-66
2023/12/21 00:42:49;;;;;;;1.13;0.50;;;;;;;;;;5093636;28;20071;-66
2023/12/21 00:45:14;;;;;;;1.38;0.52;;;;;;;;;;5093626;28;20040;-67
2023/12/21 00:47:39;;;;;;;0.80;0.52;;;;;;;;;;5093311;28;20036;-66
2023/12/21 00:50:06;;;;;;;1.95;0.73;;;;;;;;;;5075075;28;20070;-66
2023/12/21 00:52:31;;;;;;;2.72;0.73;;;;;;;;;;5093247;28;20035;-66
2023/12/21 00:54:56;;;;;;;1.50;0.70;;;;;;;;;;5075579;28;20024;-66
2023/12/21 00:57:22;;;;;;;4.00;0.60;;;;;;;;;;5093013;28;20063;-66
2023/12/21 00:59:47;;;;;;;1.38;0.45;;;;;;;;;;5093180;28;20036;-66
2023/12/21 01:02:12;;;;;;;2.03;0.50;;;;;;;;;;5093045;28;20040;-66
2023/12/21 01:04:38;;;;;;;2.20;0.80;;;;;;;;;;5093448;28;20036;-66
2023/12/21 01:07:03;;;;;;;2.67;0.60;;;;;;;;;;5092939;28;20028;-67
2023/12/21 01:09:28;;;;;;;2.40;1.00;;;;;;;;;;5093329;28;20115;-66
2023/12/21 01:11:54;;;;;;;1.13;0.43;;;;;;;;;;5093113;28;20078;-66
2023/12/21 01:14:19;;;;;;;2.22;0.70;;;;;;;;;;5092900;28;20455;-66
2023/12/21 01:16:44;;;;;;;1.30;0.60;;;;;;;;;;5093121;28;20040;-67
2023/12/21 01:19:10;;;;;;;2.03;0.77;;;;;;;;;;5074384;28;20036;-66
2023/12/21 01:21:35;;;;;;;3.00;0.73;;;;;;;;;;5091505;28;20044;-66
2023/12/21 01:24:01;;;;;;;5.18;1.33;;;;;;;;;;5092826;28;20031;-66
2023/12/21 01:26:26;;;;;;;2.85;0.75;;;;;;;;;;5092915;28;20470;-66
2023/12/21 01:28:51;;;;;;;1.58;0.47;;;;;;;;;;5074063;28;20111;-66
2023/12/21 01:31:17;;;;;;;2.88;0.60;;;;;;;;;;5092439;28;20035;-66
2023/12/21 01:33:42;;;;;;;1.98;0.50;;;;;;;;;;5074484;28;20047;-66
2023/12/21 01:36:07;;;;;;;1.63;0.63;;;;;;;;;;5074409;28;20038;-67
2023/12/21 01:38:33;;;;;;;1.48;0.80;;;;;;;;;;5092326;28;20115;-66
2023/12/21 01:40:59;;;;;;;2.97;0.90;;;;;;;;;;5092757;28;20123;-67
2023/12/21 01:43:24;;;;;;;5.18;1.38;;;;;;;;;;5092024;28;20016;-67
2023/12/21 01:45:50;;;;;;;0.95;0.45;;;;;;;;;;5092627;28;20036;-66
2023/12/21 01:48:16;;;;;;;2.50;0.60;;;;;;;;;;5092041;28;20075;-67
2023/12/21 01:50:41;;;;;;;3.58;0.75;;;;;;;;;;5091259;28;20050;-66
2023/12/21 01:53:09;;;;;;;3.65;0.70;;;;;;;;;;5091969;28;20085;-66
2023/12/21 01:55:34;;;;;;;3.13;0.60;;;;;;;;;;5069516;28;20036;-66
2023/12/21 01:58:00;;;;;;;1.65;0.50;;;;;;;;;;5073685;28;20027;-67
2023/12/21 02:00:26;;;;;;;1.90;0.50;;;;;;;;;;5092230;28;20036;-66
2023/12/21 02:02:52;;;;;;;2.55;0.70;;;;;;;;;;5073575;28;20047;-67
2023/12/21 02:05:17;;;;;;;5.30;1.00;;;;;;;;;;5091743;28;20391;-67
2023/12/21 02:07:42;;;;;;;3.95;0.90;;;;;;;;;;5091786;28;20035;-66
2023/12/21 02:10:09;;;;;;;2.92;0.77;;;;;;;;;;5089096;28;20100;-66
2023/12/21 02:12:35;;;;;;;2.95;0.65;;;;;;;;;;5091706;28;20048;-66
2023/12/21 02:15:00;;;;;;;2.35;1.00;;;;;;;;;;5092080;28;20418;-67
2023/12/21 02:17:26;;;;;;;4.22;0.60;;;;;;;;;;5091428;28;20391;-66
2023/12/21 02:19:52;;;;;;;3.45;0.85;;;;;;;;;;5073639;28;20062;-66
2023/12/21 02:22:17;;;;;;;2.35;0.45;;;;;;;;;;5072935;28;20063;-67
2023/12/21 02:24:43;;;;;;;0.55;0.30;;;;;;;;;;5091823;28;20051;-66
2023/12/21 02:27:09;;;;;;;2.20;0.52;;;;;;;;;;5073053;28;20032;-66
2023/12/21 02:29:34;;;;;;;2.30;0.65;;;;;;;;;;5073527;28;20044;-66
2023/12/21 02:31:59;;;;;;;3.10;0.73;;;;;;;;;;5090406;28;20036;-66
2023/12/21 02:34:25;;;;;;;1.38;0.60;;;;;;;;;;5091125;28;20031;-67
2023/12/21 02:36:50;;;;;;;0.93;0.50;;;;;;;;;;5091576;28;20028;-67
2023/12/21 02:39:15;;;;;;;1.45;0.70;;;;;;;;;;5091538;28;20062;-66
2023/12/21 02:41:41;;;;;;;4.15;0.75;;;;;;;;;;5091013;28;20069;-66
2023/12/21 02:44:06;;;;;;;2.38;0.65;;;;;;;;;;5091263;28;20086;-66
2023/12/21 02:46:32;;;;;;;1.73;0.55;;;;;;;;;;5072126;28;20381;-67
2023/12/21 02:48:57;;;;;;;1.38;0.40;;;;;;;;;;5087677;28;20399;-67
2023/12/21 02:51:22;;;;;;;0.75;0.47;;;;;;;;;;5090998;28;20036;-67
2023/12/21 02:53:48;;;;;;;1.58;0.50;;;;;;;;;;5091240;28;20078;-67
2023/12/21 02:56:13;;;;;;;3.22;0.40;;;;;;;;;;5091187;28;20032;-66
2023/12/21 02:58:39;;;;;;;2.95;0.50;;;;;;;;;;5090369;28;20036;-66
2023/12/21 03:01:05;;;;;;;0.30;0.20;;;;;;;;;;5090374;28;20195;-66
2023/12/21 03:03:30;;;;;;;0.65;0.25;;;;;;;;;;5090448;28;20020;-66
2023/12/21 03:05:55;;;;;;;1.23;0.35;;;;;;;;;;5091259;28;20399;-66
2023/12/21 03:08:22;;;;;;;0.88;0.28;;;;;;;;;;5090981;28;20043;-66
2023/12/21 03:10:48;;;;;;;1.20;0.40;;;;;;;;;;5090949;28;20024;-66
2023/12/21 03:13:13;;;;;;;1.10;0.40;;;;;;;;;;5090172;28;20070;-66
2023/12/21 03:15:38;;;;;;;1.42;0.38;;;;;;;;;;5091049;28;20044;-66
2023/12/21 03:18:04;;;;;;;1.20;0.40;;;;;;;;;;5089599;28;20032;-67
2023/12/21 03:20:29;;;;;;;1.17;0.30;;;;;;;;;;5090616;28;20032;-66
2023/12/21 03:22:54;;;;;;;0.30;0.20;;;;;;;;;;5072553;28;20032;-66
2023/12/21 03:25:20;;;;;;;1.17;0.45;;;;;;;;;;5090663;28;20119;-66
2023/12/21 03:27:47;;;;;;;2.42;0.40;;;;;;;;;;5090284;28;20028;-67
2023/12/21 03:30:12;;;;;;;1.27;0.30;;;;;;;;;;5090481;28;20039;-66
2023/12/21 03:32:38;;;;;;;0.80;0.40;;;;;;;;;;5090797;28;20536;-65
2023/12/21 03:35:05;;;;;;;0.63;0.40;;;;;;;;;;5090723;28;20028;-66
2023/12/21 03:37:31;;;;;;;4.38;0.52;;;;;;;;;;5072317;28;20032;-66
2023/12/21 03:39:56;;;;;;;1.05;0.30;;;;;;;;;;5090567;28;20040;-67
2023/12/21 03:42:22;;;;;;;0.57;0.35;;;;;;;;;;5090289;28;20077;-67
2023/12/21 03:44:47;;;;;;;1.83;0.45;;;;;;;;;;5090269;28;20054;-66
2023/12/21 03:47:13;;;;;;;0.63;0.30;;;;;;;;;;5090099;28;20051;-65
2023/12/21 03:49:39;;;;;;;1.08;0.32;;;;;;;;;;5089898;28;20028;-66
2023/12/21 03:52:05;;;;;;;0.20;0.20;;;;;;;;;;5090542;28;20069;-66
2023/12/21 03:54:30;;;;;;;1.00;0.40;;;;;;;;;;5090010;28;20392;-66
2023/12/21 03:56:55;;;;;;;1.15;0.32;;;;;;;;;;5090113;28;20028;-66
2023/12/21 03:59:21;;;;;;;1.83;0.40;;;;;;;;;;5090170;28;20046;-66
2023/12/21 04:01:46;;;;;;;0.60;0.22;;;;;;;;;;5089995;28;20093;-66
2023/12/21 04:04:11;;;;;;;2.55;0.38;;;;;;;;;;5090106;28;20048;-66
2023/12/21 04:06:37;;;;;;;0.30;0.30;;;;;;;;;;5090036;28;20500;-66
2023/12/21 04:09:02;;;;;;;2.50;0.73;;;;;;;;;;5089896;28;20101;-67
2023/12/21 04:11:28;;;;;;;1.50;0.30;;;;;;;;;;5090040;28;20032;-66
2023/12/21 04:13:53;;;;;;;0.70;0.35;;;;;;;;;;5092744;28;20198;-67
2023/12/21 04:16:19;;;;;;;3.33;0.50;;;;;;;;;;5094330;28;20086;-67
2023/12/21 04:18:44;;;;;;;2.97;1.20;;;;;;;;;;5093833;28;20035;-66
2023/12/21 04:21:09;;;;;;;0.22;0.20;;;;;;;;;;5094230;28;20040;-67
2023/12/21 04:23:35;;;;;;;0.20;0.20;;;;;;;;;;5094150;28;20477;-66
2023/12/21 04:26:00;;;;;;;2.08;0.50;;;;;;;;;;5093924;28;21274;-66
2023/12/21 04:28:25;;;;;;;4.25;0.63;;;;;;;;;;5093756;28;20040;-66
2023/12/21 04:30:51;;;;;;;1.20;0.50;;;;;;;;;;5093970;28;20032;-67
2023/12/21 04:33:16;;;;;;;0.90;0.30;;;;;;;;;;5093696;28;20044;-66
2023/12/21 04:35:45;;;;;;;0.98;0.50;;;;;;;;;;5093743;28;20036;-66
2023/12/21 04:38:12;;;;;;;2.10;0.50;;;;;;;;;;5093614;28;20028;-66
2023/12/21 04:40:37;;;;;;;0.70;0.40;;;;;;;;;;5093813;28;20082;-66
2023/12/21 04:43:03;;;;;;;1.98;0.40;;;;;;;;;;5093526;28;20615;-67
2023/12/21 04:45:28;;;;;;;1.55;0.30;;;;;;;;;;5092502;28;20048;-66
2023/12/21 04:47:53;;;;;;;2.28;0.47;;;;;;;;;;5093258;28;20043;-66
2023/12/21 04:50:19;;;;;;;1.95;0.68;;;;;;;;;;5093360;28;20040;-66
2023/12/21 04:52:46;;;;;;;0.90;0.40;;;;;;;;;;5075293;28;20084;-66
2023/12/21 04:55:12;;;;;;;1.15;0.40;;;;;;;;;;5093337;28;20413;-66
2023/12/21 04:57:37;;;;;;;1.65;0.30;;;;;;;;;;5067820;28;20180;-66
2023/12/21 05:00:05;;;;;;;0.38;0.28;;;;;;;;;;5093474;28;20368;-67
2023/12/21 05:02:31;;;;;;;0.25;0.22;;;;;;;;;;5092985;28;20043;-66
2023/12/21 05:04:56;;;;;;;1.23;0.40;;;;;;;;;;5093098;28;20040;-66
2023/12/21 05:07:21;;;;;;;1.92;0.60;;;;;;;;;;5093064;28;20024;-66
2023/12/21 05:09:47;;;;;;;1.05;0.40;;;;;;;;;;5093072;28;20038;-66
2023/12/21 05:12:12;;;;;;;0.95;0.40;;;;;;;;;;5092800;28;20041;-66
2023/12/21 05:14:37;;;;;;;2.65;0.50;;;;;;;;;;5075232;28;20655;-66
2023/12/21 05:17:03;;;;;;;0.22;0.20;;;;;;;;;;5092893;28;20375;-66
2023/12/21 05:19:28;;;;;;;1.48;0.50;;;;;;;;;;5092679;28;20052;-66
2023/12/21 05:21:54;;;;;;;1.25;0.50;;;;;;;;;;5092885;28;20034;-67
2023/12/21 05:24:19;;;;;;;0.90;0.40;;;;;;;;;;5074070;28;20030;-66
2023/12/21 05:26:44;;;;;;;1.98;0.47;;;;;;;;;;5093139;28;20035;-67
2023/12/21 05:29:10;;;;;;;3.17;0.47;;;;;;;;;;5092517;28;20028;-66
2023/12/21 05:31:37;;;;;;;2.63;0.50;;;;;;;;;;5092853;28;20092;-66
2023/12/21 05:34:03;;;;;;;0.90;0.40;;;;;;;;;;5092682;28;20032;-66
2023/12/21 05:36:28;;;;;;;5.35;0.65;;;;;;;;;;5074219;28;20051;-66
2023/12/21 05:38:54;;;;;;;2.38;0.90;;;;;;;;;;5092543;28;20471;-67
2023/12/21 05:41:19;;;;;;;1.35;0.50;;;;;;;;;;5092692;28;20040;-66
2023/12/21 05:43:45;;;;;;;1.70;0.50;;;;;;;;;;5092430;28;20430;-66
2023/12/21 05:46:10;;;;;;;1.98;0.47;;;;;;;;;;5074192;28;20101;-66
2023/12/21 05:48:36;;;;;;;5.25;0.80;;;;;;;;;;5092073;28;20044;-66
2023/12/21 05:51:01;;;;;;;2.70;0.60;;;;;;;;;;5074352;28;20464;-67
2023/12/21 05:53:30;;;;;;;5.40;0.70;;;;;;;;;;5092212;28;20524;-66
2023/12/21 05:55:56;;;;;;;3.92;0.82;;;;;;;;;;5086072;28;20040;-66
2023/12/21 05:58:21;;;;;;;4.22;0.77;;;;;;;;;;5091994;28;20077;-66
2023/12/21 06:00:46;;;;;;;3.50;0.63;;;;;;;;;;5092276;28;20418;-66
2023/12/21 06:03:12;;;;;;;1.40;0.50;;;;;;;;;;5091890;28;20055;-65
2023/12/21 06:05:37;;;;;;;4.78;0.73;;;;;;;;;;5092434;28;20024;-66
2023/12/21 06:08:03;;;;;;;3.55;0.45;;;;;;;;;;5091961;28;20036;-67
2023/12/21 06:10:28;;;;;;;2.47;0.43;;;;;;;;;;5091843;28;20040;-66
2023/12/21 06:12:53;;;;;;;0.95;0.35;;;;;;;;;;5092082;28;20028;-66
2023/12/21 06:15:19;;;;;;;4.38;0.63;;;;;;;;;;5091968;28;20038;-66
2023/12/21 06:17:44;;;;;;;2.33;0.70;;;;;;;;;;5091697;28;20475;-67
2023/12/21 06:20:10;;;;;;;1.60;0.50;;;;;;;;;;5091750;28;20063;-66
2023/12/21 06:22:35;;;;;;;1.75;0.55;;;;;;;;;;5091439;28;20089;-66
2023/12/21 06:25:00;;;;;;;4.60;0.52;;;;;;;;;;5091436;28;20040;-67
2023/12/21 06:27:26;;;;;;;2.78;0.70;;;;;;;;;;5091038;28;20032;-66
2023/12/21 06:29:51;;;;;;;2.63;0.77;;;;;;;;;;5091777;28;20032;-67
2023/12/21 06:32:16;;;;;;;2.92;0.80;;;;;;;;;;5091153;28;20032;-67
2023/12/21 06:34:42;;;;;;;3.40;0.60;;;;;;;;;;5091690;28;20090;-66
2023/12/21 06:37:07;;;;;;;1.75;0.40;;;;;;;;;;5090358;28;20031;-66
2023/12/21 06:39:33;;;;;;;1.98;0.73;;;;;;;;;;5091257;28;20044;-66
2023/12/21 06:41:59;;;;;;;3.72;0.60;;;;;;;;;;5091349;28;20379;-67
2023/12/21 06:44:24;;;;;;;2.33;0.85;;;;;;;;;;5091476;28;20040;-66
2023/12/21 06:46:51;;;;;;;4.28;1.00;;;;;;;;;;5091057;28;20043;-67
2023/12/21 06:49:16;;;;;;;1.48;0.50;;;;;;;;;;5090820;28;20614;-65
2023/12/21 06:51:42;;;;;;;4.40;0.63;;;;;;;;;;5091378;28;20028;-66
2023/12/21 06:54:07;;;;;;;3.35;0.90;;;;;;;;;;5090802;28;20372;-66
2023/12/21 06:56:33;;;;;;;3.72;0.60;;;;;;;;;;5090102;28;20027;-66
2023/12/21 06:58:58;;;;;;;1.42;0.50;;;;;;;;;;5091198;28;20027;-67
2023/12/21 07:01:27;;;;;;;6.78;0.90;;;;;;;;;;5090991;28;20036;-66
2023/12/21 07:03:53;;;;;;;1.52;0.80;;;;;;;;;;5091215;28;20028;-66
2023/12/21 07:06:19;;;;;;;2.90;0.40;;;;;;;;;;5091101;28;20093;-66
2023/12/21 07:08:44;;;;;;;4.15;0.70;;;;;;;;;;5072364;28;20065;-66
2023/12/21 07:11:10;;;;;;;2.40;0.55;;;;;;;;;;5090093;28;20111;-67
2023/12/21 07:13:35;;;;;;;1.23;0.50;;;;;;;;;;5090578;28;20048;-66
2023/12/21 07:16:01;;;;;;;3.47;0.70;;;;;;;;;;5090612;28;20044;-67
2023/12/21 07:18:27;;;;;;;4.95;0.80;;;;;;;;;;5090334;28;20044;-66
2023/12/21 07:20:52;;;;;;;1.80;0.52;;;;;;;;;;5090455;28;20032;-67
2023/12/21 07:23:18;;;;;;;3.25;0.70;;;;;;;;;;5072554;28;20039;-67
2023/12/21 07:25:43;;;;;;;1.65;0.63;;;;;;;;;;5090643;28;20384;-67
2023/12/21 07:28:08;;;;;;;1.38;0.60;;;;;;;;;;5090779;28;20521;-67
2023/12/21 07:30:34;;;;;;;5.10;1.00;;;;;;;;;;5090406;28;20040;-66
2023/12/21 07:32:59;;;;;;;2.92;0.57;;;;;;;;;;5090532;28;20115;-66
2023/12/21 07:35:24;;;;;;;2.60;0.70;;;;;;;;;;5090697;28;20024;-66
2023/12/21 07:37:50;;;;;;;3.90;0.70;;;;;;;;;;5090455;28;20052;-67
2023/12/21 07:40:15;;;;;;;3.45;0.85;;;;;;;;;;5089948;28;20252;-66
2023/12/21 07:42:40;;;;;;;2.85;0.68;;;;;;;;;;5090032;28;20036;-66
2023/12/21 07:45:06;;;;;;;3.83;0.73;;;;;;;;;;5090409;28;20594;-66
2023/12/21 07:47:32;;;;;;;1.80;0.68;;;;;;;;;;5090195;28;20357;-66
2023/12/21 07:49:57;;;;;;;3.90;1.45;;;;;;;;;;5089870;28;20111;-67
2023/12/21 07:52:22;;;;;;;3.88;0.90;;;;;;;;;;5089521;28;20114;-67
2023/12/21 07:54:48;;;;;;;2.95;0.68;;;;;;;;;;5089599;28;20162;-67
2023/12/21 07:57:14;;;;;;;5.35;0.90;;;;;;;;;;5090176;28;20081;-66
2023/12/21 07:59:40;;;;;;;5.47;0.82;;;;;;;;;;5090122;28;20028;-67
2023/12/21 08:02:05;;;;;;;2.38;0.60;;;;;;;;;;5089784;28;20081;-66
2023/12/21 08:04:31;;;;;;;2.47;0.90;;;;;;;;;;5090540;28;20629;-66
2023/12/21 08:06:56;;;;;;;5.07;0.70;;;;;;;;;;5089470;28;20036;-67
2023/12/21 08:09:22;;;;;;;5.65;0.93;;;;;;;;;;5090030;28;20063;-66
2023/12/21 08:11:47;;;;;;;1.92;0.55;;;;;;;;;;5090055;28;20061;-67
2023/12/21 08:14:13;;;;;;;6.40;0.60;;;;;;;;;;5089944;28;20622;-67
2023/12/21 08:16:39;;;;;;;3.80;0.80;;;;;;;;;;5090209;28;20122;-66
2023/12/21 08:19:04;;;;;;;2.60;0.60;;;;;;;;;;5090241;28;20516;-66
2023/12/21 08:21:29;;;;;;;2.55;0.60;;;;;;;;;;5071944;28;20036;-66
2023/12/21 08:23:55;;;;;;;1.38;0.60;;;;;;;;;;5090315;28;20082;-66
2023/12/21 08:26:20;;;;;;;2.10;0.70;;;;;;;;;;5089943;28;20039;-67
2023/12/21 08:28:46;;;;;;;5.22;0.88;;;;;;;;;;5090067;28;20032;-66
2023/12/21 08:31:11;;;;;;;4.28;0.70;;;;;;;;;;5051965;28;20028;-67
2023/12/21 08:33:36;;;;;;;4.55;0.90;;;;;;;;;;5090300;28;20032;-67
2023/12/21 08:36:03;;;;;;;2.70;0.70;;;;;;;;;;5089338;28;20071;-66
2023/12/21 08:38:28;;;;;;;2.67;0.60;;;;;;;;;;5065330;28;20028;-67
2023/12/21 08:40:54;;;;;;;2.90;0.60;;;;;;;;;;5089708;28;20059;-67
2023/12/21 08:43:19;;;;;;;1.15;0.32;;;;;;;;;;5089088;28;20498;-67
2023/12/21 08:45:44;;;;;;;2.78;0.60;;;;;;;;;;5089992;28;20052;-66
2023/12/21 08:48:10;;;;;;;2.85;0.65;;;;;;;;;;5089892;28;20102;-66
2023/12/21 08:50:35;;;;;;;2.45;0.60;;;;;;;;;;5089669;28;20044;-66
2023/12/21 08:53:02;;;;;;;1.02;0.35;;;;;;;;;;5071547;28;20070;-68
2023/12/21 08:55:28;;;;;;;3.38;0.70;;;;;;;;;;5072020;28;20024;-66
2023/12/21 08:57:55;;;;;;;3.33;0.50;;;;;;;;;;5088201;28;20399;-67
2023/12/21 09:00:20;;;;;;;2.97;0.60;;;;;;;;;;5091386;28;20104;-66
2023/12/21 09:02:45;;;;;;;2.20;0.95;;;;;;;;;;5093541;28;20649;-67
2023/12/21 09:05:12;;;;;;;0.98;0.40;;;;;;;;;;5092921;28;20463;-66
2023/12/21 09:07:37;;;;;;;1.02;0.50;;;;;;;;;;5075208;28;20117;-66
2023/12/21 09:10:03;;;;;;;5.10;0.90;;;;;;;;;;5093389;28;20047;-67
2023/12/21 09:12:29;;;;;;;2.80;0.40;;;;;;;;;;5092672;28;20058;-66
2023/12/21 09:14:54;;;;;;;1.73;0.57;;;;;;;;;;5094047;28;20024;-67
2023/12/21 09:17:20;;;;;;;1.77;0.50;;;;;;;;;;5093141;28;20043;-67
2023/12/21 09:19:45;;;;;;;1.80;0.40;;;;;;;;;;5077204;28;21168;-67
2023/12/21 09:22:11;;;;;;;3.67;0.60;;;;;;;;;;5088771;28;20036;-67
2023/12/21 09:24:39;;;;;;;1.90;0.60;;;;;;;;;;5089019;28;20063;-66
2023/12/21 09:27:05;;;;;;;1.45;0.60;;;;;;;;;;5088522;28;20036;-67
2023/12/21 09:29:30;;;;;;;1.52;0.50;;;;;;;;;;5089501;28;20552;-67
2023/12/21 09:31:57;;;;;;;2.78;0.60;;;;;;;;;;5071232;28;20055;-67
2023/12/21 09:34:22;;;;;;;3.40;1.05;;;;;;;;;;5089205;28;20107;-67
2023/12/21 09:36:47;;;;;;;2.30;0.55;;;;;;;;;;5089362;28;20114;-67
2023/12/21 09:39:13;;;;;;;2.00;0.70;;;;;;;;;;5088999;28;20024;-67
2023/12/21 09:41:39;;;;;;;3.45;0.63;;;;;;;;;;5090084;28;20071;-67
2023/12/21 09:44:05;;;;;;;1.00;0.50;;;;;;;;;;5088567;28;20047;-67
2023/12/21 09:46:38;;;;;;;1.80;0.70;;;;;;;;;;5088819;28;20028;-67
2023/12/21 09:49:06;;;;;;;1.58;0.52;;;;;;;;;;5088616;28;20040;-68
2023/12/21 09:51:33;;;;;;;3.17;0.82;;;;;;;;;;5088605;28;20048;-67
2023/12/21 09:54:00;;;;;;;3.10;0.77;;;;;;;;;;5088655;28;20042;-67
2023/12/21 09:56:26;;;;;;;5.15;0.70;;;;;;;;;;5070424;28;20042;-68
2023/12/21 09:58:51;;;;;;;1.85;0.60;;;;;;;;;;5089284;28;20028;-67
2023/12/21 10:01:17;;;;;;;2.10;0.80;;;;;;;;;;5088816;28;20447;-66
2023/12/21 10:03:44;;;;;;;2.72;0.63;;;;;;;;;;5088453;28;20051;-67
2023/12/21 10:06:10;;;;;;;1.35;0.60;;;;;;;;;;5070735;28;20054;-67
2023/12/21 10:08:36;;;;;;;4.63;0.95;;;;;;;;;;5086310;28;20044;-67
2023/12/21 10:11:06;;;;;;;2.03;0.88;;;;;;;;;;5088102;28;20070;-68
2023/12/21 10:13:32;;;;;;;6.15;0.95;;;;;;;;;;5079163;28;20028;-67
2023/12/21 10:16:03;;;;;;;2.63;0.75;;;;;;;;;;5082618;28;20043;-67
2023/12/21 10:18:29;;;;;;;4.00;0.73;;;;;;;;;;5084033;28;20130;-67
2023/12/21 10:20:55;;;;;;;4.65;1.00;;;;;;;;;;5087765;28;20051;-67
2023/12/21 10:23:20;;;;;;;4.65;0.90;;;;;;;;;;5067486;28;20127;-67
2023/12/21 10:25:46;;;;;;;3.75;0.75;;;;;;;;;;5085398;28;20636;-66
2023/12/21 10:28:12;;;;;;;1.77;0.68;;;;;;;;;;5082412;28;20082;-67
2023/12/21 10:30:38;;;;;;;5.93;0.75;;;;;;;;;;5067728;28;20483;-67
2023/12/21 10:33:03;;;;;;;9.88;1.10;;;;;;;;;;5086629;28;20037;-67
2023/12/21 10:35:29;;;;;;;4.68;0.82;;;;;;;;;;5055913;28;20353;-67
2023/12/21 10:37:54;;;;;;;4.28;1.17;;;;;;;;;;5068749;28;20028;-66
2023/12/21 10:40:22;;;;;;;3.55;0.88;;;;;;;;;;5085870;28;20081;-67
2023/12/21 10:42:48;;;;;;;2.92;0.75;;;;;;;;;;5088405;28;20039;-67
2023/12/21 10:45:15;;;;;;;3.38;0.98;;;;;;;;;;5087296;28;20044;-66
2023/12/21 10:47:47;;;;;;;2.90;0.80;;;;;;;;;;5087221;28;20028;-67
2023/12/21 10:50:13;;;;;;;4.50;0.90;;;;;;;;;;5087130;28;20024;-66
2023/12/21 10:52:40;;;;;;;2.42;1.08;;;;;;;;;;5087421;28;20040;-66
2023/12/21 10:55:07;;;;;;;3.53;0.70;;;;;;;;;;5069327;28;20032;-66
2023/12/21 10:57:33;;;;;;;3.13;0.75;;;;;;;;;;5069573;28;20034;-66
2023/12/21 10:59:59;;;;;;;1.05;0.65;;;;;;;;;;5069941;28;20044;-67
2023/12/21 11:02:24;;;;;;;1.00;0.40;;;;;;;;;;5070015;28;20055;-67
2023/12/21 11:04:50;;;;;;;3.05;0.82;;;;;;;;;;5087220;28;20498;-66
2023/12/21 11:07:16;;;;;;;4.03;0.80;;;;;;;;;;5087131;28;20069;-67
2023/12/21 11:09:42;;;;;;;2.53;0.85;;;;;;;;;;5086945;28;20044;-67
2023/12/21 11:12:08;;;;;;;3.35;0.80;;;;;;;;;;5067695;28;20047;-68
2023/12/21 11:14:34;;;;;;;2.45;0.77;;;;;;;;;;5070297;28;20036;-67
2023/12/21 11:17:00;;;;;;;3.45;0.80;;;;;;;;;;5068749;28;20036;-67
2023/12/21 11:19:31;;;;;;;1.52;0.63;;;;;;;;;;5067683;28;20039;-67
2023/12/21 11:21:57;;;;;;;4.28;0.70;;;;;;;;;;5086789;28;20510;-67
2023/12/21 11:24:23;;;;;;;7.22;1.13;;;;;;;;;;5068835;28;20051;-67
2023/12/21 11:26:50;;;;;;;6.35;0.80;;;;;;;;;;5069337;28;20384;-66
2023/12/21 11:29:27;;;;;;;3.83;0.82;;;;;;;;;;5087764;28;20032;-67
2023/12/21 11:31:52;;;;;;;2.85;0.93;;;;;;;;;;5086208;28;20085;-67
2023/12/21 11:34:19;;;;;;;3.72;0.80;;;;;;;;;;5069362;28;20287;-67
2023/12/21 11:36:46;;;;;;;2.08;0.82;;;;;;;;;;5078645;28;20032;-67
2023/12/21 11:39:18;;;;;;;4.80;0.93;;;;;;;;;;5087140;28;20031;-67
2023/12/21 11:41:50;;;;;;;3.22;0.80;;;;;;;;;;5094230;28;20032;-67
2023/12/21 11:44:16;;;;;;;4.55;1.10;;;;;;;;;;5086679;28;20067;-67
2023/12/21 11:46:41;;;;;;;1.90;0.60;;;;;;;;;;5074696;28;20039;-67
2023/12/21 11:49:10;;;;;;;2.67;0.80;;;;;;;;;;5086763;28;20052;-66
2023/12/21 11:51:46;;;;;;;3.78;0.70;;;;;;;;;;5086883;28;20137;-67
2023/12/21 11:54:11;;;;;;;4.03;0.73;;;;;;;;;;5086901;28;20395;-67
2023/12/21 11:56:36;;;;;;;1.38;0.50;;;;;;;;;;5088974;28;20040;-67
2023/12/21 11:59:03;;;;;;;2.53;0.65;;;;;;;;;;5087603;28;20470;-67
2023/12/21 12:01:29;;;;;;;1.15;0.60;;;;;;;;;;5069765;28;20042;-67
2023/12/21 12:03:55;;;;;;;3.05;0.90;;;;;;;;;;5068394;28;20282;-67
2023/12/21 12:06:22;;;;;;;2.13;0.63;;;;;;;;;;5086679;28;20028;-67
2023/12/21 12:08:47;;;;;;;3.08;0.60;;;;;;;;;;5086454;28;20036;-67
2023/12/21 12:11:13;;;;;;;3.38;0.88;;;;;;;;;;5094356;28;20556;-67
2023/12/21 12:13:39;;;;;;;1.90;0.52;;;;;;;;;;5086918;28;20148;-68
2023/12/21 12:16:07;;;;;;;1.95;0.60;;;;;;;;;;5068017;28;20381;-68
2023/12/21 12:18:32;;;;;;;1.30;0.52;;;;;;;;;;5085624;28;20036;-67
2023/12/21 12:21:00;;;;;;;4.50;0.90;;;;;;;;;;5066328;28;20104;-67
2023/12/21 12:23:26;;;;;;;4.60;0.75;;;;;;;;;;5085779;28;20510;-67
2023/12/21 12:25:51;;;;;;;9.48;0.88;;;;;;;;;;5085832;28;20028;-67
2023/12/21 12:28:17;;;;;;;2.55;0.70;;;;;;;;;;5086076;28;20110;-67
2023/12/21 12:30:43;;;;;;;4.15;1.17;;;;;;;;;;5086078;28;20040;-67
2023/12/21 12:33:08;;;;;;;3.05;0.85;;;;;;;;;;5085745;28;20032;-67
2023/12/21 12:35:37;;;;;;;4.70;0.88;;;;;;;;;;5087411;28;20584;-67
2023/12/21 12:38:06;;;;;;;4.43;0.90;;;;;;;;;;5089737;28;20089;-67
2023/12/21 12:40:32;;;;;;;2.05;0.98;;;;;;;;;;5089267;28;20032;-67
2023/12/21 12:42:59;;;;;;;2.85;1.10;;;;;;;;;;5072597;28;20047;-67
2023/12/21 12:45:24;;;;;;;4.13;1.42;;;;;;;;;;5089586;28;20512;-67
2023/12/21 12:47:50;;;;;;;2.97;0.82;;;;;;;;;;5089656;28;20032;-67
2023/12/21 12:50:15;;;;;;;2.78;0.75;;;;;;;;;;5089662;28;20123;-67
2023/12/21 12:52:41;;;;;;;1.85;0.50;;;;;;;;;;5087778;28;20050;-67
2023/12/21 12:55:11;;;;;;;6.18;1.20;;;;;;;;;;5089293;28;20476;-68
2023/12/21 12:57:36;;;;;;;5.05;0.85;;;;;;;;;;5090427;28;20047;-67
2023/12/21 13:00:03;;;;;;;1.65;0.63;;;;;;;;;;5087748;28;20043;-67
2023/12/21 13:02:29;;;;;;;5.68;1.00;;;;;;;;;;5067480;28;20395;-67
2023/12/21 13:04:55;;;;;;;3.70;1.00;;;;;;;;;;5070965;28;20043;-67
2023/12/21 13:07:20;;;;;;;7.53;1.05;;;;;;;;;;5088150;28;20032;-67
2023/12/21 13:09:47;;;;;;;8.45;1.05;;;;;;;;;;5088110;28;20115;-67
2023/12/21 13:12:13;;;;;;;4.88;1.45;;;;;;;;;;5089391;28;20048;-67
2023/12/21 13:14:38;;;;;;;5.50;1.33;;;;;;;;;;5065659;28;20058;-66
2023/12/21 13:17:04;;;;;;;10.10;1.52;;;;;;;;;;5088437;28;20038;-67
2023/12/21 13:19:29;;;;;;;7.90;1.20;;;;;;;;;;5089548;28;20118;-67
2023/12/21 13:21:55;;;;;;;7.00;1.38;;;;;;;;;;5089035;28;20048;-67
2023/12/21 13:24:21;;;;;;;6.47;1.27;;;;;;;;;;5087448;28;20067;-67
2023/12/21 13:26:47;;;;;;;9.77;1.23;;;;;;;;;;5070321;28;20032;-67
2023/12/21 13:29:12;;;;;;;8.75;1.70;;;;;;;;;;5079502;28;20511;-67
2023/12/21 13:31:38;;;;;;;8.27;2.08;;;;;;;;;;5086841;28;20036;-67
2023/12/21 13:34:04;;;;;;;8.32;1.20;;;;;;;;;;5084747;28;20040;-68
2023/12/21 13:36:29;;;;;;;2.90;0.90;;;;;;;;;;5075763;28;20039;-67
2023/12/21 13:38:56;;;;;;;3.33;0.90;;;;;;;;;;5085530;28;20147;-67
2023/12/21 13:41:22;;;;;;;4.97;1.25;;;;;;;;;;5088010;28;20032;-66
2023/12/21 13:43:48;;;;;;;8.40;1.58;;;;;;;;;;5087644;28;20048;-67
2023/12/21 13:46:13;;;;;;;7.97;1.27;;;;;;;;;;5087566;28;20058;-68
2023/12/21 13:48:39;;;;;;;7.97;1.25;;;;;;;;;;5088145;28;20706;-67
2023/12/21 13:51:04;;;;;;;4.03;0.98;;;;;;;;;;5086133;28;20082;-67
2023/12/21 13:53:30;;;;;;;4.70;1.33;;;;;;;;;;5087192;28;20040;-67
2023/12/21 13:55:55;;;;;;;6.45;1.00;;;;;;;;;;5085764;28;20043;-67
2023/12/21 13:58:21;;;;;;;4.38;0.90;;;;;;;;;;5076687;28;20113;-67
2023/12/21 14:00:47;;;;;;;6.05;1.02;;;;;;;;;;5089438;28;20039;-67
2023/12/21 14:03:14;;;;;;;4.72;1.30;;;;;;;;;;5080461;28;20035;-67
2023/12/21 14:05:40;;;;;;;10.57;1.27;;;;;;;;;;5086758;28;20040;-67
2023/12/21 14:08:06;;;;;;;2.03;0.80;;;;;;;;;;5087334;28;20032;-68
2023/12/21 14:10:31;;;;;;;2.40;0.82;;;;;;;;;;5086753;28;20518;-67
2023/12/21 14:13:00;;;;;;;2.95;0.75;;;;;;;;;;5086992;28;20032;-67
2023/12/21 14:15:26;;;;;;;6.15;0.82;;;;;;;;;;5085061;28;20042;-68
2023/12/21 14:17:52;;;;;;;1.80;0.60;;;;;;;;;;5088384;28;20558;-66
2023/12/21 14:20:22;;;;;;;8.43;0.95;;;;;;;;;;5087944;28;20610;-67
2023/12/21 14:22:50;;;;;;;7.13;1.02;;;;;;;;;;5087573;28;20024;-67
2023/12/21 14:25:15;;;;;;;3.85;1.10;;;;;;;;;;5087183;28;20098;-67
2023/12/21 14:27:42;;;;;;;3.60;1.23;;;;;;;;;;5087653;28;20047;-67
2023/12/21 14:30:08;;;;;;;2.72;0.70;;;;;;;;;;5087859;28;20042;-67
2023/12/21 14:32:34;;;;;;;4.20;0.70;;;;;;;;;;5088487;28;20032;-67
2023/12/21 14:34:59;;;;;;;3.10;0.57;;;;;;;;;;5087266;28;20028;-67